sensor_id;sensor_type;location;lat;lon;timestamp;P1;durP1;ratioP1;P2;durP2;ratioP2
48789;SDS011;41718;51.980;5.734;2022-12-29T00:00:45;3.03;;;2.40;;
48789;SDS011;41718;51.980;5.734;2022-12-29T00:05:53;2.80;;;2.55;;
48789;SDS011;41718;51.980;5.734;2022-12-29T00:10:55;2.55;;;2.35;;
48789;SDS011;41718;51.980;5.734;2022-12-29T00:15:59;5.82;;;2.80;;
48789;SDS011;41718;51.980;5.734;2022-12-29T00:21:01;4.55;;;3.38;;
48789;SDS011;41718;51.980;5.734;2022-12-29T00:26:21;8.15;;;3.33;;
48789;SDS011;41718;51.980;5.734;2022-12-29T00:31:41;4.47;;;2.67;;
48789;SDS011;41718;51.980;5.734;2022-12-29T00:37:01;3.35;;;2.60;;
48789;SDS011;41718;51.980;5.734;2022-12-29T00:42:06;4.28;;;2.67;;
48789;SDS011;41718;51.980;5.734;2022-12-29T00:47:41;4.35;;;2.75;;
48789;SDS011;41718;51.980;5.734;2022-12-29T00:52:43;3.30;;;2.10;;
48789;SDS011;41718;51.980;5.734;2022-12-29T00:57:44;3.05;;;2.45;;
48789;SDS011;41718;51.980;5.734;2022-12-29T01:02:45;2.63;;;2.25;;
48789;SDS011;41718;51.980;5.734;2022-12-29T01:07:47;8.43;;;5.65;;
48789;SDS011;41718;51.980;5.734;2022-12-29T01:12:48;1.50;;;1.40;;
48789;SDS011;41718;51.980;5.734;2022-12-29T01:17:51;2.70;;;1.30;;
48789;SDS011;41718;51.980;5.734;2022-12-29T01:22:53;3.30;;;1.13;;
48789;SDS011;41718;51.980;5.734;2022-12-29T01:27:54;1.17;;;1.08;;
48789;SDS011;41718;51.980;5.734;2022-12-29T01:32:56;1.42;;;1.05;;
48789;SDS011;41718;51.980;5.734;2022-12-29T01:37:57;2.97;;;1.08;;
48789;SDS011;41718;51.980;5.734;2022-12-29T01:42:59;1.63;;;1.25;;
48789;SDS011;41718;51.980;5.734;2022-12-29T01:48:01;1.63;;;1.42;;
48789;SDS011;41718;51.980;5.734;2022-12-29T01:53:10;2.63;;;1.40;;
48789;SDS011;41718;51.980;5.734;2022-12-29T01:58:19;1.23;;;1.13;;
48789;SDS011;41718;51.980;5.734;2022-12-29T02:03:23;1.58;;;1.02;;
48789;SDS011;41718;51.980;5.734;2022-12-29T02:08:28;2.33;;;1.60;;
48789;SDS011;41718;51.980;5.734;2022-12-29T02:13:30;1.40;;;1.30;;
48789;SDS011;41718;51.980;5.734;2022-12-29T02:29:46;1.85;;;0.80;;
48789;SDS011;41718;51.980;5.734;2022-12-29T02:35:08;0.70;;;0.45;;
48789;SDS011;41718;51.980;5.734;2022-12-29T02:40:39;0.65;;;0.40;;
48789;SDS011;41718;51.980;5.734;2022-12-29T02:46:05;2.70;;;0.98;;
48789;SDS011;41718;51.980;5.734;2022-12-29T02:51:12;0.60;;;0.60;;
48789;SDS011;41718;51.980;5.734;2022-12-29T02:56:21;1.92;;;1.13;;
48789;SDS011;41718;51.980;5.734;2022-12-29T03:01:24;1.52;;;1.25;;
48789;SDS011;41718;51.980;5.734;2022-12-29T03:06:58;1.55;;;1.30;;
48789;SDS011;41718;51.980;5.734;2022-12-29T03:12:28;1.55;;;0.82;;
48789;SDS011;41718;51.980;5.734;2022-12-29T03:17:55;2.35;;;0.60;;
48789;SDS011;41718;51.980;5.734;2022-12-29T03:23:03;1.27;;;0.68;;
48789;SDS011;41718;51.980;5.734;2022-12-29T03:28:12;0.95;;;0.70;;
48789;SDS011;41718;51.980;5.734;2022-12-29T03:33:23;2.55;;;0.95;;
48789;SDS011;41718;51.980;5.734;2022-12-29T03:38:33;4.93;;;1.15;;
48789;SDS011;41718;51.980;5.734;2022-12-29T03:43:41;1.13;;;0.80;;
48789;SDS011;41718;51.980;5.734;2022-12-29T03:48:42;2.60;;;1.45;;
48789;SDS011;41718;51.980;5.734;2022-12-29T03:53:44;0.95;;;0.70;;
48789;SDS011;41718;51.980;5.734;2022-12-29T03:58:45;2.72;;;1.27;;
48789;SDS011;41718;51.980;5.734;2022-12-29T04:03:47;6.13;;;1.60;;
48789;SDS011;41718;51.980;5.734;2022-12-29T04:08:48;2.10;;;1.00;;
48789;SDS011;41718;51.980;5.734;2022-12-29T04:13:49;4.13;;;1.38;;
48789;SDS011;41718;51.980;5.734;2022-12-29T04:18:51;1.20;;;0.90;;
48789;SDS011;41718;51.980;5.734;2022-12-29T04:23:52;2.05;;;0.90;;
48789;SDS011;41718;51.980;5.734;2022-12-29T04:28:54;1.58;;;0.77;;
48789;SDS011;41718;51.980;5.734;2022-12-29T04:33:55;4.22;;;2.97;;
48789;SDS011;41718;51.980;5.734;2022-12-29T04:38:58;5.03;;;0.73;;
48789;SDS011;41718;51.980;5.734;2022-12-29T04:43:59;3.33;;;0.93;;
48789;SDS011;41718;51.980;5.734;2022-12-29T04:49:01;2.15;;;1.10;;
48789;SDS011;41718;51.980;5.734;2022-12-29T04:54:09;0.95;;;0.43;;
48789;SDS011;41718;51.980;5.734;2022-12-29T04:59:10;5.03;;;1.25;;
48789;SDS011;41718;51.980;5.734;2022-12-29T05:04:11;1.15;;;0.60;;
48789;SDS011;41718;51.980;5.734;2022-12-29T05:09:14;8.38;;;1.50;;
48789;SDS011;41718;51.980;5.734;2022-12-29T05:14:15;5.70;;;1.23;;
48789;SDS011;41718;51.980;5.734;2022-12-29T05:19:18;3.83;;;0.65;;
48789;SDS011;41718;51.980;5.734;2022-12-29T05:24:22;4.15;;;1.02;;
48789;SDS011;41718;51.980;5.734;2022-12-29T05:29:24;5.50;;;2.17;;
48789;SDS011;41718;51.980;5.734;2022-12-29T05:34:25;3.58;;;1.48;;
48789;SDS011;41718;51.980;5.734;2022-12-29T05:39:27;7.03;;;1.10;;
48789;SDS011;41718;51.980;5.734;2022-12-29T05:44:28;4.45;;;1.70;;
48789;SDS011;41718;51.980;5.734;2022-12-29T05:49:30;4.45;;;1.55;;
48789;SDS011;41718;51.980;5.734;2022-12-29T05:54:31;2.42;;;1.13;;
48789;SDS011;41718;51.980;5.734;2022-12-29T05:59:32;2.70;;;1.20;;
48789;SDS011;41718;51.980;5.734;2022-12-29T06:04:34;2.33;;;1.55;;
48789;SDS011;41718;51.980;5.734;2022-12-29T06:09:35;10.27;;;2.30;;
48789;SDS011;41718;51.980;5.734;2022-12-29T06:14:37;7.88;;;1.35;;
48789;SDS011;41718;51.980;5.734;2022-12-29T06:19:38;4.57;;;1.10;;
48789;SDS011;41718;51.980;5.734;2022-12-29T06:24:40;6.30;;;1.33;;
48789;SDS011;41718;51.980;5.734;2022-12-29T06:29:41;6.60;;;1.85;;
48789;SDS011;41718;51.980;5.734;2022-12-29T06:34:43;2.67;;;1.33;;
48789;SDS011;41718;51.980;5.734;2022-12-29T06:39:45;3.53;;;1.35;;
48789;SDS011;41718;51.980;5.734;2022-12-29T06:44:47;6.22;;;1.67;;
48789;SDS011;41718;51.980;5.734;2022-12-29T06:49:48;6.28;;;1.85;;
48789;SDS011;41718;51.980;5.734;2022-12-29T06:54:51;6.82;;;1.58;;
48789;SDS011;41718;51.980;5.734;2022-12-29T06:59:52;5.07;;;1.25;;
48789;SDS011;41718;51.980;5.734;2022-12-29T07:04:56;5.35;;;1.38;;
48789;SDS011;41718;51.980;5.734;2022-12-29T07:09:58;3.15;;;1.38;;
48789;SDS011;41718;51.980;5.734;2022-12-29T07:14:59;6.22;;;1.67;;
48789;SDS011;41718;51.980;5.734;2022-12-29T07:20:00;4.90;;;1.52;;
48789;SDS011;41718;51.980;5.734;2022-12-29T07:25:02;6.13;;;1.75;;
48789;SDS011;41718;51.980;5.734;2022-12-29T07:30:04;3.35;;;1.02;;
48789;SDS011;41718;51.980;5.734;2022-12-29T07:35:06;6.28;;;1.73;;
48789;SDS011;41718;51.980;5.734;2022-12-29T07:40:09;4.68;;;1.88;;
48789;SDS011;41718;51.980;5.734;2022-12-29T07:45:10;1.15;;;0.88;;
48789;SDS011;41718;51.980;5.734;2022-12-29T07:50:12;2.20;;;1.33;;
48789;SDS011;41718;51.980;5.734;2022-12-29T07:55:14;3.40;;;1.38;;
48789;SDS011;41718;51.980;5.734;2022-12-29T08:00:16;1.60;;;1.05;;
48789;SDS011;41718;51.980;5.734;2022-12-29T08:05:18;8.43;;;1.85;;
48789;SDS011;41718;51.980;5.734;2022-12-29T08:10:20;3.17;;;1.30;;
48789;SDS011;41718;51.980;5.734;2022-12-29T08:15:21;6.10;;;1.45;;
48789;SDS011;41718;51.980;5.734;2022-12-29T08:20:34;4.25;;;1.20;;
48789;SDS011;41718;51.980;5.734;2022-12-29T08:25:36;4.95;;;1.77;;
48789;SDS011;41718;51.980;5.734;2022-12-29T08:30:37;7.45;;;2.25;;
48789;SDS011;41718;51.980;5.734;2022-12-29T08:35:39;3.92;;;1.70;;
48789;SDS011;41718;51.980;5.734;2022-12-29T08:40:41;13.23;;;2.45;;
48789;SDS011;41718;51.980;5.734;2022-12-29T08:45:43;4.63;;;1.58;;
48789;SDS011;41718;51.980;5.734;2022-12-29T08:50:44;4.13;;;1.20;;
48789;SDS011;41718;51.980;5.734;2022-12-29T08:55:47;4.18;;;1.48;;
48789;SDS011;41718;51.980;5.734;2022-12-29T09:01:04;4.47;;;1.95;;
48789;SDS011;41718;51.980;5.734;2022-12-29T09:06:06;7.88;;;1.38;;
48789;SDS011;41718;51.980;5.734;2022-12-29T09:11:09;3.10;;;1.60;;
48789;SDS011;41718;51.980;5.734;2022-12-29T09:16:12;6.18;;;1.73;;
48789;SDS011;41718;51.980;5.734;2022-12-29T09:21:14;6.15;;;1.65;;
48789;SDS011;41718;51.980;5.734;2022-12-29T09:26:16;6.47;;;2.08;;
48789;SDS011;41718;51.980;5.734;2022-12-29T09:31:17;6.53;;;1.73;;
48789;SDS011;41718;51.980;5.734;2022-12-29T09:36:20;9.20;;;3.55;;
48789;SDS011;41718;51.980;5.734;2022-12-29T09:41:25;12.88;;;1.77;;
48789;SDS011;41718;51.980;5.734;2022-12-29T09:51:38;8.55;;;1.80;;
48789;SDS011;41718;51.980;5.734;2022-12-29T09:56:44;11.73;;;2.53;;
48789;SDS011;41718;51.980;5.734;2022-12-29T10:01:55;1.48;;;1.40;;
48789;SDS011;41718;51.980;5.734;2022-12-29T10:07:25;5.43;;;2.47;;
48789;SDS011;41718;51.980;5.734;2022-12-29T10:28:41;8.75;;;1.80;;
48789;SDS011;41718;51.980;5.734;2022-12-29T10:33:55;2.63;;;1.33;;
48789;SDS011;41718;51.980;5.734;2022-12-29T10:44:25;2.42;;;1.30;;
48789;SDS011;41718;51.980;5.734;2022-12-29T10:49:32;7.75;;;1.70;;
48789;SDS011;41718;51.980;5.734;2022-12-29T10:54:49;4.53;;;1.38;;
48789;SDS011;41718;51.980;5.734;2022-12-29T10:59:56;5.72;;;1.70;;
48789;SDS011;41718;51.980;5.734;2022-12-29T11:10:41;7.05;;;2.33;;
48789;SDS011;41718;51.980;5.734;2022-12-29T11:15:48;4.00;;;0.97;;
48789;SDS011;41718;51.980;5.734;2022-12-29T11:20:55;1.95;;;1.00;;
48789;SDS011;41718;51.980;5.734;2022-12-29T11:31:15;9.60;;;2.53;;
48789;SDS011;41718;51.980;5.734;2022-12-29T11:36:22;8.10;;;2.97;;
48789;SDS011;41718;51.980;5.734;2022-12-29T11:41:26;7.38;;;3.58;;
48789;SDS011;41718;51.980;5.734;2022-12-29T11:51:39;7.88;;;2.95;;
48789;SDS011;41718;51.980;5.734;2022-12-29T11:56:47;8.82;;;2.97;;
48789;SDS011;41718;51.980;5.734;2022-12-29T12:01:50;10.45;;;2.97;;
48789;SDS011;41718;51.980;5.734;2022-12-29T12:12:04;8.93;;;2.88;;
48789;SDS011;41718;51.980;5.734;2022-12-29T12:17:14;5.13;;;1.75;;
48789;SDS011;41718;51.980;5.734;2022-12-29T12:22:31;15.43;;;2.40;;
48789;SDS011;41718;51.980;5.734;2022-12-29T12:27:43;7.32;;;2.70;;
48789;SDS011;41718;51.980;5.734;2022-12-29T12:33:50;1.85;;;1.15;;
48789;SDS011;41718;51.980;5.734;2022-12-29T12:43:47;9.70;;;3.33;;
48789;SDS011;41718;51.980;5.734;2022-12-29T12:59:30;6.75;;;3.25;;
48789;SDS011;41718;51.980;5.734;2022-12-29T13:20:53;10.60;;;3.90;;
48789;SDS011;41718;51.980;5.734;2022-12-29T13:26:15;13.00;;;3.00;;
48789;SDS011;41718;51.980;5.734;2022-12-29T13:36:50;6.10;;;2.72;;
48789;SDS011;41718;51.980;5.734;2022-12-29T13:41:55;11.70;;;4.05;;
48789;SDS011;41718;51.980;5.734;2022-12-29T13:46:58;11.23;;;4.15;;
48789;SDS011;41718;51.980;5.734;2022-12-29T13:57:51;9.35;;;2.92;;
48789;SDS011;41718;51.980;5.734;2022-12-29T14:08:45;10.77;;;2.22;;
48789;SDS011;41718;51.980;5.734;2022-12-29T14:13:48;8.13;;;3.20;;
48789;SDS011;41718;51.980;5.734;2022-12-29T14:18:50;6.85;;;2.35;;
48789;SDS011;41718;51.980;5.734;2022-12-29T14:23:51;3.83;;;1.60;;
48789;SDS011;41718;51.980;5.734;2022-12-29T14:28:55;3.00;;;1.35;;
48789;SDS011;41718;51.980;5.734;2022-12-29T14:39:41;4.22;;;2.33;;
48789;SDS011;41718;51.980;5.734;2022-12-29T14:49:49;6.72;;;2.42;;
48789;SDS011;41718;51.980;5.734;2022-12-29T15:00:06;6.93;;;2.88;;
48789;SDS011;41718;51.980;5.734;2022-12-29T15:05:29;2.70;;;2.10;;
48789;SDS011;41718;51.980;5.734;2022-12-29T15:10:39;5.30;;;2.10;;
48789;SDS011;41718;51.980;5.734;2022-12-29T15:15:44;4.90;;;2.05;;
48789;SDS011;41718;51.980;5.734;2022-12-29T15:20:46;6.28;;;2.50;;
48789;SDS011;41718;51.980;5.734;2022-12-29T15:25:56;10.35;;;2.25;;
48789;SDS011;41718;51.980;5.734;2022-12-29T15:31:04;7.03;;;2.13;;
48789;SDS011;41718;51.980;5.734;2022-12-29T15:36:10;10.10;;;2.35;;
48789;SDS011;41718;51.980;5.734;2022-12-29T15:41:32;4.65;;;1.98;;
48789;SDS011;41718;51.980;5.734;2022-12-29T15:47:05;6.70;;;2.93;;
48789;SDS011;41718;51.980;5.734;2022-12-29T15:52:12;11.85;;;2.85;;
48789;SDS011;41718;51.980;5.734;2022-12-29T16:02:29;4.68;;;2.45;;
48789;SDS011;41718;51.980;5.734;2022-12-29T16:07:32;5.22;;;2.35;;
48789;SDS011;41718;51.980;5.734;2022-12-29T16:12:41;5.18;;;1.52;;
48789;SDS011;41718;51.980;5.734;2022-12-29T16:17:51;6.45;;;2.08;;
48789;SDS011;41718;51.980;5.734;2022-12-29T16:22:55;5.15;;;2.30;;
48789;SDS011;41718;51.980;5.734;2022-12-29T16:27:58;4.82;;;2.05;;
48789;SDS011;41718;51.980;5.734;2022-12-29T16:33:03;4.05;;;2.25;;
48789;SDS011;41718;51.980;5.734;2022-12-29T16:38:10;6.63;;;2.03;;
48789;SDS011;41718;51.980;5.734;2022-12-29T16:43:21;6.47;;;2.33;;
48789;SDS011;41718;51.980;5.734;2022-12-29T16:48:35;8.93;;;1.70;;
48789;SDS011;41718;51.980;5.734;2022-12-29T16:53:48;6.82;;;2.28;;
48789;SDS011;41718;51.980;5.734;2022-12-29T16:59:02;3.33;;;1.70;;
48789;SDS011;41718;51.980;5.734;2022-12-29T17:04:10;6.05;;;2.20;;
48789;SDS011;41718;51.980;5.734;2022-12-29T17:09:17;4.50;;;1.90;;
48789;SDS011;41718;51.980;5.734;2022-12-29T17:19:54;7.50;;;2.13;;
48789;SDS011;41718;51.980;5.734;2022-12-29T17:25:00;3.47;;;1.92;;
48789;SDS011;41718;51.980;5.734;2022-12-29T17:30:25;9.48;;;3.45;;
48789;SDS011;41718;51.980;5.734;2022-12-29T17:35:33;11.80;;;3.75;;
48789;SDS011;41718;51.980;5.734;2022-12-29T17:40:43;4.10;;;2.30;;
48789;SDS011;41718;51.980;5.734;2022-12-29T17:45:46;5.97;;;2.38;;
48789;SDS011;41718;51.980;5.734;2022-12-29T17:50:53;3.97;;;1.85;;
48789;SDS011;41718;51.980;5.734;2022-12-29T17:55:54;8.20;;;2.22;;
48789;SDS011;41718;51.980;5.734;2022-12-29T18:00:58;13.48;;;2.90;;
48789;SDS011;41718;51.980;5.734;2022-12-29T18:06:02;9.45;;;4.03;;
48789;SDS011;41718;51.980;5.734;2022-12-29T18:11:15;7.80;;;3.33;;
48789;SDS011;41718;51.980;5.734;2022-12-29T18:16:22;9.52;;;3.08;;
48789;SDS011;41718;51.980;5.734;2022-12-29T18:21:26;3.92;;;2.17;;
48789;SDS011;41718;51.980;5.734;2022-12-29T18:26:28;4.97;;;2.17;;
48789;SDS011;41718;51.980;5.734;2022-12-29T18:31:32;7.72;;;2.70;;
48789;SDS011;41718;51.980;5.734;2022-12-29T18:36:37;6.45;;;2.97;;
48789;SDS011;41718;51.980;5.734;2022-12-29T18:41:38;6.35;;;1.83;;
48789;SDS011;41718;51.980;5.734;2022-12-29T18:46:40;7.28;;;2.38;;
48789;SDS011;41718;51.980;5.734;2022-12-29T18:51:42;9.13;;;3.40;;
48789;SDS011;41718;51.980;5.734;2022-12-29T18:56:44;9.35;;;2.80;;
48789;SDS011;41718;51.980;5.734;2022-12-29T19:01:45;7.30;;;2.97;;
48789;SDS011;41718;51.980;5.734;2022-12-29T19:06:47;7.85;;;2.88;;
48789;SDS011;41718;51.980;5.734;2022-12-29T19:11:49;11.73;;;3.40;;
48789;SDS011;41718;51.980;5.734;2022-12-29T19:16:51;8.80;;;2.67;;
48789;SDS011;41718;51.980;5.734;2022-12-29T19:21:55;10.77;;;3.78;;
48789;SDS011;41718;51.980;5.734;2022-12-29T19:26:59;9.75;;;3.50;;
48789;SDS011;41718;51.980;5.734;2022-12-29T19:32:01;8.48;;;3.63;;
48789;SDS011;41718;51.980;5.734;2022-12-29T19:37:02;7.28;;;3.40;;
48789;SDS011;41718;51.980;5.734;2022-12-29T19:42:04;11.43;;;3.92;;
48789;SDS011;41718;51.980;5.734;2022-12-29T19:47:06;13.50;;;4.10;;
48789;SDS011;41718;51.980;5.734;2022-12-29T19:52:12;11.27;;;3.70;;
48789;SDS011;41718;51.980;5.734;2022-12-29T19:57:14;8.82;;;2.95;;
48789;SDS011;41718;51.980;5.734;2022-12-29T20:02:20;8.65;;;2.65;;
48789;SDS011;41718;51.980;5.734;2022-12-29T20:07:26;8.02;;;3.15;;
48789;SDS011;41718;51.980;5.734;2022-12-29T20:12:28;15.27;;;4.15;;
48789;SDS011;41718;51.980;5.734;2022-12-29T20:17:37;10.32;;;3.83;;
48789;SDS011;41718;51.980;5.734;2022-12-29T20:23:00;10.25;;;4.50;;
48789;SDS011;41718;51.980;5.734;2022-12-29T20:28:02;14.48;;;3.80;;
48789;SDS011;41718;51.980;5.734;2022-12-29T20:33:04;9.32;;;4.30;;
48789;SDS011;41718;51.980;5.734;2022-12-29T20:38:09;11.35;;;3.95;;
48789;SDS011;41718;51.980;5.734;2022-12-29T20:43:15;12.45;;;3.63;;
48789;SDS011;41718;51.980;5.734;2022-12-29T20:48:19;13.85;;;3.60;;
48789;SDS011;41718;51.980;5.734;2022-12-29T20:53:24;16.92;;;3.72;;
48789;SDS011;41718;51.980;5.734;2022-12-29T20:58:36;7.93;;;3.15;;
48789;SDS011;41718;51.980;5.734;2022-12-29T21:03:58;15.43;;;4.35;;
48789;SDS011;41718;51.980;5.734;2022-12-29T21:09:02;16.27;;;5.60;;
48789;SDS011;41718;51.980;5.734;2022-12-29T21:14:04;7.97;;;3.40;;
48789;SDS011;41718;51.980;5.734;2022-12-29T21:19:06;18.70;;;5.78;;
48789;SDS011;41718;51.980;5.734;2022-12-29T21:24:08;14.82;;;4.82;;
48789;SDS011;41718;51.980;5.734;2022-12-29T21:29:10;18.35;;;4.82;;
48789;SDS011;41718;51.980;5.734;2022-12-29T21:34:12;19.55;;;4.70;;
48789;SDS011;41718;51.980;5.734;2022-12-29T21:39:13;15.40;;;5.75;;
48789;SDS011;41718;51.980;5.734;2022-12-29T21:44:16;15.40;;;4.53;;
48789;SDS011;41718;51.980;5.734;2022-12-29T21:49:36;15.85;;;3.60;;
48789;SDS011;41718;51.980;5.734;2022-12-29T21:54:38;9.65;;;3.25;;
48789;SDS011;41718;51.980;5.734;2022-12-29T21:59:58;11.77;;;4.20;;
48789;SDS011;41718;51.980;5.734;2022-12-29T22:05:19;16.20;;;3.78;;
48789;SDS011;41718;51.980;5.734;2022-12-29T22:10:39;8.48;;;3.88;;
48789;SDS011;41718;51.980;5.734;2022-12-29T22:16:04;15.48;;;4.32;;
48789;SDS011;41718;51.980;5.734;2022-12-29T22:21:07;12.60;;;3.73;;
48789;SDS011;41718;51.980;5.734;2022-12-29T22:26:11;10.73;;;3.17;;
48789;SDS011;41718;51.980;5.734;2022-12-29T22:31:22;15.70;;;4.20;;
48789;SDS011;41718;51.980;5.734;2022-12-29T22:36:29;9.98;;;3.50;;
48789;SDS011;41718;51.980;5.734;2022-12-29T22:41:33;24.52;;;5.00;;
48789;SDS011;41718;51.980;5.734;2022-12-29T22:46:35;9.40;;;3.47;;
48789;SDS011;41718;51.980;5.734;2022-12-29T22:51:37;9.93;;;3.97;;
48789;SDS011;41718;51.980;5.734;2022-12-29T22:56:41;11.43;;;3.53;;
48789;SDS011;41718;51.980;5.734;2022-12-29T23:01:42;9.93;;;2.80;;
48789;SDS011;41718;51.980;5.734;2022-12-29T23:06:46;10.80;;;3.38;;
48789;SDS011;41718;51.980;5.734;2022-12-29T23:11:47;14.23;;;3.05;;
48789;SDS011;41718;51.980;5.734;2022-12-29T23:16:49;7.05;;;3.15;;
48789;SDS011;41718;51.980;5.734;2022-12-29T23:21:51;16.60;;;4.68;;
48789;SDS011;41718;51.980;5.734;2022-12-29T23:26:53;7.80;;;3.45;;
48789;SDS011;41718;51.980;5.734;2022-12-29T23:31:56;14.63;;;3.00;;
48789;SDS011;41718;51.980;5.734;2022-12-29T23:36:57;14.05;;;3.83;;
48789;SDS011;41718;51.980;5.734;2022-12-29T23:41:59;9.98;;;3.53;;
48789;SDS011;41718;51.980;5.734;2022-12-29T23:47:00;8.23;;;2.45;;
48789;SDS011;41718;51.980;5.734;2022-12-29T23:52:03;13.02;;;2.90;;
48789;SDS011;41718;51.980;5.734;2022-12-29T23:57:05;14.00;;;3.40;;
